Time;durP1;ratioP1;P1;durP2;ratioP2;P2;SDS_P1;SDS_P2;PMS_P1;PMS_P2;Temp;Humidity;BMP_temperature;BMP_pressure;BME280_temperature;BME280_humidity;BME280_pressure;Samples;Min_cycle;Max_cycle;Signal;HPM_P1;HPM_P2
2021/09/23 00:00:13;;;;;;;0.60;0.30;;;5.10;1.40;;;6.48;100.00;96217.02;646906;216;31570;-71
2021/09/23 00:03:09;;;;;;;0.40;0.30;;;5.10;1.40;;;6.41;100.00;96207.91;645972;212;31509;-71
2021/09/23 00:05:46;;;;;;;0.50;0.40;;;4.90;1.40;;;6.34;100.00;96198.61;647112;216;31484;-69
2021/09/23 00:11:02;;;;;;;0.65;0.30;;;5.00;1.40;;;6.41;100.00;96199.94;647681;216;31472;-71
2021/09/23 00:13:44;;;;;;;0.40;0.30;;;5.00;1.40;;;6.28;100.00;96191.42;646141;216;31558;-71
2021/09/23 00:16:26;;;;;;;1.40;0.30;;;4.90;1.40;;;6.21;100.00;96192.72;646657;216;42141;-72
2021/09/23 00:19:08;;;;;;;0.88;0.88;;;4.70;1.40;;;6.21;100.00;96182.77;646179;212;31505;-71
2021/09/23 00:21:49;;;;;;;0.40;0.30;;;4.80;1.40;;;6.19;100.00;96188.36;619417;226;31832;-73
2021/09/23 00:24:31;;;;;;;0.40;0.30;;;4.80;1.40;;;6.12;100.00;96179.98;645372;216;43151;-74
2021/09/23 00:27:15;;;;;;;0.90;0.60;;;4.80;1.40;;;5.99;100.00;96174.72;646750;216;42151;-72
2021/09/23 00:29:57;;;;;;;0.60;0.50;;;4.70;1.40;;;5.95;100.00;96166.84;646458;212;31503;-74
2021/09/23 00:32:42;;;;;;;0.40;0.30;;;4.50;1.40;;;5.87;100.00;96165.90;647018;212;42201;-70
2021/09/23 00:35:51;;;;;;;0.40;0.40;;;4.40;1.40;;;5.82;100.00;96161.77;646811;216;31621;-73
2021/09/23 00:38:33;;;;;;;0.50;0.50;;;4.40;1.40;;;5.86;100.00;96154.91;647374;216;42883;-72
2021/09/23 00:41:17;;;;;;;0.40;0.40;;;4.50;1.40;;;5.82;100.00;96155.42;639206;216;42286;-73
2021/09/23 00:43:59;;;;;;;1.08;0.60;;;4.50;1.40;;;5.95;100.00;96153.16;646514;212;31491;-71
2021/09/23 00:46:41;;;;;;;0.55;0.55;;;4.60;1.40;;;5.98;100.00;96156.56;645213;216;42118;-72
2021/09/23 00:49:23;;;;;;;0.85;0.43;;;4.70;1.40;;;5.99;100.00;96149.47;646204;216;31676;-72
2021/09/23 00:52:05;;;;;;;0.70;0.60;;;4.70;1.40;;;6.06;100.00;96153.02;646312;212;42142;-70
2021/09/23 00:54:46;;;;;;;0.50;0.50;;;4.80;1.40;;;5.93;100.00;96152.09;646872;212;31515;-73
2021/09/23 00:57:28;;;;;;;0.40;0.20;;;4.70;1.40;;;5.89;100.00;96152.14;646532;216;31642;-71
2021/09/23 01:00:11;;;;;;;0.52;0.52;;;4.60;1.40;;;5.82;100.00;96153.70;646990;216;31501;-72
2021/09/23 01:02:56;;;;;;;0.50;0.30;;;4.50;1.40;;;5.76;100.00;96151.31;646711;213;42267;-72
2021/09/23 01:05:38;;;;;;;2.40;0.60;;;4.40;1.40;;;5.73;100.00;96154.41;647647;212;32118;-72
2021/09/23 01:08:19;;;;;;;0.60;0.40;;;4.40;1.40;;;5.76;100.00;96157.71;645808;212;32132;-71
2021/09/23 01:11:01;;;;;;;0.90;0.30;;;4.50;1.40;;;5.73;100.00;96161.02;646928;213;32188;-72
2021/09/23 01:13:43;;;;;;;0.50;0.40;;;4.50;1.40;;;5.75;100.00;96155.02;644670;212;32089;-72
2021/09/23 01:16:24;;;;;;;1.00;0.40;;;4.60;1.40;;;5.83;100.00;96156.61;646427;212;32147;-70
2021/09/23 01:19:06;;;;;;;0.55;0.52;;;4.60;1.40;;;5.92;100.00;96154.45;646960;212;32472;-71
2021/09/23 01:21:48;;;;;;;0.60;0.40;;;4.70;1.40;;;5.94;100.00;96153.12;619873;226;32413;-71
2021/09/23 01:24:29;;;;;;;0.70;0.60;;;4.70;1.40;;;6.03;100.00;96153.48;644923;216;42730;-71
2021/09/23 01:27:11;;;;;;;0.60;0.60;;;4.70;1.40;;;5.99;100.00;96149.37;645476;216;31517;-71
2021/09/23 01:29:56;;;;;;;0.40;0.30;;;4.60;1.40;;;5.87;100.00;96145.08;646820;216;31547;-71
2021/09/23 01:32:37;;;;;;;0.60;0.20;;;4.60;1.40;;;5.79;100.00;96144.74;646169;216;42107;-71
2021/09/23 01:35:51;;;;;;;0.50;0.30;;;4.50;1.40;;;5.81;100.00;96143.57;646042;216;31488;-73
2021/09/23 01:38:33;;;;;;;0.80;0.60;;;4.40;1.40;;;5.76;100.00;96142.86;646385;212;42724;-71
2021/09/23 01:41:15;;;;;;;1.50;0.80;;;4.30;1.40;;;5.80;100.00;96144.05;640764;212;32359;-72
2021/09/23 01:43:56;;;;;;;0.40;0.25;;;4.40;1.40;;;5.83;100.00;96145.58;645073;216;42709;-73
2021/09/23 01:46:38;;;;;;;0.90;0.50;;;4.40;1.40;;;5.73;100.00;96148.27;646552;216;31586;-74
2021/09/23 01:49:20;;;;;;;0.50;0.22;;;4.40;1.40;;;5.66;100.00;96142.62;646659;216;31793;-71
2021/09/23 01:52:01;;;;;;;0.57;0.32;;;4.40;1.40;;;5.66;100.00;96142.23;647029;216;31716;-72
2021/09/23 01:54:48;;;;;;;0.85;0.85;;;4.30;1.40;;;5.74;100.00;96138.97;646440;216;31494;-70
2021/09/23 01:57:28;;;;;;;0.40;0.40;;;4.30;1.40;;;5.76;100.00;96137.03;646677;212;42136;-72
2021/09/23 02:00:10;;;;;;;0.40;0.30;;;4.40;1.40;;;5.85;100.00;96136.23;645813;212;31659;-73
2021/09/23 02:02:54;;;;;;;0.90;0.30;;;4.40;1.40;;;5.79;100.00;96133.28;647200;212;31681;-72
2021/09/23 02:05:33;;;;;;;0.40;0.30;;;4.30;1.40;;;5.78;100.00;96132.14;646763;214;31623;-71
2021/09/23 02:08:15;;;;;;;0.40;0.20;;;4.30;1.40;;;5.71;100.00;96130.23;647116;216;31609;-74
2021/09/23 02:10:56;;;;;;;0.77;0.45;;;4.20;1.40;;;5.70;100.00;96132.59;646321;212;31926;-73
2021/09/23 02:13:41;;;;;;;0.60;0.40;;;4.20;1.40;;;5.52;100.00;96136.28;645391;212;31498;-71
2021/09/23 02:16:23;;;;;;;0.40;0.30;;;4.10;1.40;;;5.45;100.00;96133.05;646109;216;31495;-71
2021/09/23 02:19:05;;;;;;;0.90;0.40;;;4.00;1.40;;;5.39;100.00;96129.89;645426;216;31678;-70
2021/09/23 02:21:48;;;;;;;0.50;0.30;;;3.90;1.40;;;5.42;100.00;96124.69;646128;212;31595;-71
2021/09/23 02:24:28;;;;;;;0.75;0.43;;;3.90;1.40;;;5.29;100.00;96121.58;646050;212;31691;-73
2021/09/23 02:27:10;;;;;;;1.60;0.50;;;3.80;1.40;;;5.18;100.00;96120.16;647468;216;32159;-72
2021/09/23 02:29:51;;;;;;;0.40;0.30;;;3.70;1.40;;;5.21;100.00;96115.05;646394;212;31835;-73
2021/09/23 02:35:51;;;;;;;0.47;0.47;;;3.70;1.40;;;5.08;100.00;96100.28;647209;212;31512;-71
2021/09/23 02:38:33;;;;;;;0.50;0.30;;;3.80;1.40;;;5.00;100.00;96097.05;647787;216;31473;-73
2021/09/23 02:41:14;;;;;;;0.50;0.50;;;3.70;1.40;;;5.02;100.00;96095.72;640906;212;31655;-71
2021/09/23 02:43:59;;;;;;;0.80;0.40;;;3.70;1.40;;;5.01;100.00;96093.08;647235;216;31528;-74
2021/09/23 02:46:40;;;;;;;0.50;0.30;;;3.60;1.40;;;4.97;100.00;96094.17;644755;216;31698;-73
2021/09/23 02:49:22;;;;;;;0.60;0.30;;;3.60;1.40;;;4.99;100.00;96092.69;647164;216;31510;-71
2021/09/23 02:52:04;;;;;;;0.40;0.30;;;3.70;1.40;;;4.93;100.00;96087.47;646736;212;31538;-73
2021/09/23 02:54:46;;;;;;;0.80;0.45;;;3.60;1.40;;;5.08;100.00;96084.36;646277;216;31498;-71
2021/09/23 02:57:27;;;;;;;0.50;0.30;;;3.90;1.40;;;5.22;100.00;96086.78;646909;216;31526;-71
2021/09/23 03:00:10;;;;;;;0.40;0.30;;;4.00;1.40;;;5.25;100.00;96082.63;646524;212;31540;-70
2021/09/23 03:02:51;;;;;;;0.50;0.50;;;4.00;1.40;;;5.23;100.00;96077.77;646563;216;31518;-70
2021/09/23 03:05:33;;;;;;;1.55;0.70;;;3.90;1.40;;;5.14;100.00;96082.60;645574;212;31489;-71
2021/09/23 03:08:18;;;;;;;0.40;0.30;;;3.70;1.40;;;5.05;100.00;96079.61;646754;216;31507;-73
2021/09/23 03:11:00;;;;;;;0.50;0.30;;;3.60;1.40;;;4.96;100.00;96075.73;646842;216;31467;-72
2021/09/23 03:13:42;;;;;;;0.70;0.60;;;3.60;1.40;;;5.03;100.00;96069.06;646557;212;32131;-70
2021/09/23 03:16:23;;;;;;;0.68;0.47;;;3.80;1.40;;;5.10;100.00;96060.84;645584;216;32099;-71
2021/09/23 03:19:05;;;;;;;2.87;0.60;;;3.80;1.40;;;5.03;100.00;96065.89;646437;212;31515;-72
2021/09/23 03:21:46;;;;;;;0.70;0.50;;;3.80;1.40;;;4.99;100.00;96059.91;646352;216;31541;-73
2021/09/23 03:24:28;;;;;;;0.60;0.40;;;3.80;1.40;;;5.05;100.00;96055.00;647375;216;31503;-73
2021/09/23 03:27:10;;;;;;;1.00;0.90;;;3.80;1.40;;;5.04;100.00;96056.70;619496;226;31951;-71
2021/09/23 03:29:51;;;;;;;0.80;0.40;;;3.70;1.40;;;5.01;100.00;96048.32;646756;216;31903;-71
2021/09/23 03:32:33;;;;;;;2.90;0.50;;;3.60;1.40;;;4.99;100.00;96047.61;617818;226;32052;-71
2021/09/23 03:35:51;;;;;;;0.60;0.22;;;3.50;1.40;;;4.82;100.00;96049.98;645391;212;31500;-73
2021/09/23 03:38:33;;;;;;;0.40;0.20;;;3.50;1.40;;;4.82;100.00;96047.30;647082;216;31568;-71
2021/09/23 03:41:14;;;;;;;0.80;0.60;;;3.50;1.40;;;4.90;100.00;96046.98;641391;216;31772;-73
2021/09/23 03:43:58;;;;;;;1.08;0.30;;;3.50;1.40;;;4.87;100.00;96046.84;649883;212;31498;-84
2021/09/23 03:46:46;;;;;;;0.40;0.30;;;3.40;1.40;;;4.77;100.00;96045.48;619696;226;31840;-72
2021/09/23 03:49:28;;;;;;;0.70;0.50;;;3.40;1.40;;;4.71;100.00;96044.08;645581;212;31553;-72
2021/09/23 03:52:12;;;;;;;0.77;0.40;;;3.30;1.40;;;4.66;100.00;96043.65;647437;216;31498;-71
2021/09/23 03:54:54;;;;;;;1.00;0.50;;;3.30;1.40;;;4.61;100.00;96036.69;646770;216;31550;-71
2021/09/23 03:57:39;;;;;;;0.50;0.40;;;3.30;1.40;;;4.58;100.00;96031.23;646296;216;32100;-74
2021/09/23 04:00:23;;;;;;;0.77;0.60;;;3.30;1.40;;;4.71;100.00;96030.66;646557;216;32098;-74
2021/09/23 04:03:02;;;;;;;1.60;1.10;;;3.40;1.40;;;4.70;100.00;96021.13;645664;212;32346;-72
2021/09/23 04:05:47;;;;;;;0.80;0.30;;;3.40;1.40;;;4.72;100.00;96019.75;645303;212;31564;-70
2021/09/23 04:08:29;;;;;;;1.12;0.37;;;3.40;1.40;;;4.64;100.00;96014.37;646000;212;31544;-73
2021/09/23 04:11:10;;;;;;;0.60;0.50;;;3.40;1.40;;;4.63;100.00;96009.91;647279;216;31526;-73
2021/09/23 04:13:52;;;;;;;1.05;0.70;;;3.40;1.40;;;4.63;100.00;96004.97;646474;216;31615;-73
2021/09/23 04:16:33;;;;;;;0.90;0.60;;;3.40;1.40;;;4.73;100.00;96000.09;645433;216;31873;-71
2021/09/23 04:19:15;;;;;;;0.68;0.50;;;3.50;1.40;;;4.74;100.00;96000.97;644771;216;31513;-71
2021/09/23 04:22:00;;;;;;;1.20;0.40;;;3.40;1.40;;;4.71;100.00;96001.96;647494;216;31517;-72
2021/09/23 04:24:41;;;;;;;0.50;0.40;;;3.30;1.40;;;4.75;100.00;96003.02;645367;212;31455;-73
2021/09/23 04:27:23;;;;;;;0.40;0.30;;;3.40;1.40;;;4.70;100.00;95993.69;647357;212;31476;-72
2021/09/23 04:30:05;;;;;;;0.40;0.30;;;3.40;1.40;;;4.61;100.00;95991.63;647244;216;31495;-71
2021/09/23 04:32:47;;;;;;;0.40;0.40;;;3.30;1.40;;;4.66;100.00;95991.34;647362;216;31497;-73
2021/09/23 04:35:54;;;;;;;0.70;0.40;;;3.40;1.40;;;4.65;100.00;95983.97;644785;212;31611;-73
2021/09/23 04:38:34;;;;;;;1.20;0.60;;;3.50;1.40;;;4.82;100.00;95973.81;646602;216;31513;-74
2021/09/23 04:41:15;;;;;;;0.50;0.30;;;3.80;1.40;;;4.98;100.00;95973.33;640855;216;31755;-70
2021/09/23 04:43:57;;;;;;;0.50;0.40;;;4.00;1.40;;;5.05;100.00;95971.00;646850;216;31558;-71
2021/09/23 04:46:42;;;;;;;0.40;0.30;;;3.90;1.40;;;4.92;100.00;95971.41;645314;216;31900;-72
2021/09/23 04:49:23;;;;;;;1.12;0.57;;;3.70;1.40;;;4.80;100.00;95963.48;646688;212;31491;-73
2021/09/23 04:52:05;;;;;;;0.80;0.50;;;3.60;1.40;;;4.83;100.00;95958.87;647026;216;31562;-74
2021/09/23 04:54:50;;;;;;;0.50;0.50;;;3.80;1.40;;;4.92;100.00;95958.56;645361;216;31600;-74
2021/09/23 04:57:34;;;;;;;1.80;0.70;;;3.90;1.40;;;5.11;100.00;95956.91;646553;216;31508;-72
2021/09/23 05:00:17;;;;;;;0.90;0.70;;;4.10;1.40;;;5.37;100.00;95951.31;646468;212;32066;-74
2021/09/23 05:02:59;;;;;;;0.80;0.80;;;4.40;1.40;;;5.55;100.00;95946.29;647389;212;31589;-72
2021/09/23 05:05:41;;;;;;;0.60;0.50;;;4.60;1.40;;;5.60;100.00;95937.52;645278;216;31509;-73
2021/09/23 05:08:25;;;;;;;0.82;0.47;;;4.60;1.40;;;5.63;100.00;95932.42;618834;226;31864;-74
2021/09/23 05:11:07;;;;;;;0.60;0.40;;;4.60;1.40;;;5.70;100.00;95933.11;640912;217;31612;-72
2021/09/23 05:13:49;;;;;;;1.05;0.77;;;4.60;1.40;;;5.77;100.00;95933.98;648248;216;31843;-72
2021/09/23 05:16:30;;;;;;;0.90;0.60;;;4.70;1.40;;;5.86;100.00;95936.60;646809;216;32838;-72
2021/09/23 05:19:12;;;;;;;0.60;0.30;;;4.70;1.40;;;5.85;100.00;95938.16;647042;216;31647;-71
2021/09/23 05:21:54;;;;;;;0.90;0.60;;;4.40;1.40;;;5.63;100.00;95935.01;645681;216;31709;-74
2021/09/23 05:24:35;;;;;;;1.10;0.30;;;4.10;1.40;;;5.53;100.00;95929.02;646350;212;42122;-72
2021/09/23 05:27:17;;;;;;;1.45;0.43;;;4.00;1.40;;;5.38;100.00;95928.95;645995;212;31544;-70
2021/09/23 05:31:00;;;;;;;1.17;0.40;;;3.90;1.40;;;5.23;100.00;95913.05;646828;212;31738;-71
2021/09/23 05:35:51;;;;;;;1.60;0.55;;;4.00;1.40;;;5.54;100.00;95902.83;618226;226;31980;-74
2021/09/23 05:38:33;;;;;;;0.60;0.30;;;4.40;1.40;;;5.67;100.00;95908.56;646961;216;31693;-72
2021/09/23 05:41:15;;;;;;;0.70;0.50;;;4.50;1.40;;;5.96;100.00;95907.42;641296;212;31750;-72
2021/09/23 05:43:56;;;;;;;0.70;0.65;;;4.90;1.40;;;6.14;100.00;95906.86;646339;216;32224;-72
2021/09/23 05:46:38;;;;;;;0.70;0.40;;;5.10;1.40;;;6.33;100.00;95904.29;646645;216;31572;-71
2021/09/23 05:49:20;;;;;;;1.00;0.60;;;5.30;1.40;;;6.41;100.00;95902.47;647083;212;31733;-72
2021/09/23 05:52:05;;;;;;;0.70;0.70;;;5.20;1.40;;;6.47;100.00;95899.36;646294;216;32788;-71
2021/09/23 05:54:46;;;;;;;0.50;0.30;;;5.20;1.40;;;6.60;100.00;95900.53;645961;212;32323;-70
2021/09/23 05:57:34;;;;;;;0.70;0.50;;;5.30;1.40;;;6.83;100.00;95905.69;645919;212;32659;-71
2021/09/23 06:00:15;;;;;;;0.60;0.50;;;5.60;1.40;;;6.92;100.00;95905.83;647882;216;31474;-73
2021/09/23 06:03:00;;;;;;;0.50;0.50;;;5.60;1.40;;;6.97;100.00;95903.94;647047;216;31586;-73
2021/09/23 06:05:44;;;;;;;1.67;0.90;;;5.60;1.40;;;6.98;100.00;95913.53;647495;216;42327;-73
2021/09/23 06:08:27;;;;;;;0.40;0.40;;;5.60;1.40;;;6.94;100.00;95913.86;647102;212;42137;-73
2021/09/23 06:11:09;;;;;;;1.00;0.90;;;5.50;1.40;;;7.04;100.00;95906.14;645642;212;31791;-72
2021/09/23 06:13:51;;;;;;;0.52;0.52;;;5.60;1.40;;;7.07;100.00;95903.58;645444;216;31688;-70
2021/09/23 06:16:32;;;;;;;0.90;0.70;;;5.60;1.40;;;7.20;100.00;95899.30;647061;212;31527;-73
2021/09/23 06:19:23;;;;;;;0.60;0.60;;;5.80;1.40;;;7.33;100.00;95896.08;647133;212;31494;-71
2021/09/23 06:22:05;;;;;;;0.70;0.60;;;5.90;1.40;;;7.40;100.00;95892.61;645809;216;31591;-71
2021/09/23 06:24:50;;;;;;;0.85;0.68;;;6.00;1.40;;;7.53;100.00;95892.00;646579;212;31526;-70
2021/09/23 06:27:32;;;;;;;1.90;1.45;;;6.10;1.40;;;7.72;100.00;95892.30;646913;216;31565;-71
2021/09/23 06:30:14;;;;;;;0.40;0.37;;;6.30;1.40;;;7.84;100.00;95890.44;646415;213;31536;-70
2021/09/23 06:32:56;;;;;;;0.50;0.50;;;6.40;1.40;;;8.00;100.00;95892.30;646230;213;31670;-71
2021/09/23 06:35:51;;;;;;;1.95;1.08;;;6.60;1.40;;;8.14;100.00;95892.38;645745;216;31582;-71
2021/09/23 06:38:32;;;;;;;0.60;0.60;;;6.80;1.40;;;8.27;100.00;95890.45;646542;212;31625;-73
2021/09/23 06:41:14;;;;;;;1.10;0.70;;;6.90;1.40;;;8.44;100.00;95891.75;612736;226;32294;-71
2021/09/23 06:43:56;;;;;;;0.55;0.52;;;7.20;1.40;;;8.60;100.00;95893.13;646217;216;31497;-71
2021/09/23 06:46:40;;;;;;;0.60;0.60;;;7.30;1.40;;;8.75;100.00;95893.44;645499;216;31646;-73
2021/09/23 06:49:23;;;;;;;0.50;0.47;;;7.50;1.40;;;8.87;100.00;95890.20;645913;216;32024;-72
2021/09/23 06:52:04;;;;;;;0.53;0.53;;;7.60;1.40;;;9.09;100.00;95890.04;644435;216;32155;-70
2021/09/23 06:54:46;;;;;;;0.70;0.70;;;8.10;1.40;;;9.30;100.00;95884.87;645791;216;31508;-70
2021/09/23 06:57:27;;;;;;;0.40;0.40;;;8.30;1.40;;;9.40;100.00;95885.80;646135;216;31538;-70
2021/09/23 07:00:12;;;;;;;1.20;1.10;;;8.20;1.40;;;9.57;100.00;95886.90;644914;216;31520;-71
2021/09/23 07:02:54;;;;;;;1.10;1.00;;;8.30;1.40;;;9.75;100.00;95889.27;645862;212;31946;-70
2021/09/23 07:05:36;;;;;;;1.60;0.90;;;8.50;1.40;;;9.94;100.00;95896.44;646635;212;31705;-71
2021/09/23 07:08:18;;;;;;;1.30;0.70;;;8.70;1.40;;;10.12;100.00;95893.97;644184;216;31963;-71
2021/09/23 07:10:59;;;;;;;1.40;0.80;;;8.80;1.40;;;10.22;100.00;95889.30;646509;212;31631;-70
2021/09/23 07:13:41;;;;;;;0.80;0.70;;;9.00;1.40;;;10.40;100.00;95892.07;646840;212;32216;-71
2021/09/23 07:16:25;;;;;;;0.70;0.70;;;9.10;1.40;;;10.58;100.00;95880.78;646352;214;31548;-71
2021/09/23 07:19:07;;;;;;;0.70;0.60;;;9.20;1.40;;;10.80;100.00;95874.70;647602;216;31551;-71
2021/09/23 07:21:49;;;;;;;0.87;0.87;;;9.70;1.40;;;11.00;100.00;95872.50;646356;216;31505;-71
2021/09/23 07:24:30;;;;;;;1.10;0.90;;;10.20;1.40;;;11.21;100.00;95864.51;645212;212;31576;-71
2021/09/23 07:27:12;;;;;;;0.90;0.90;;;10.40;1.40;;;11.39;100.00;95863.58;645454;216;31555;-71
2021/09/23 07:29:57;;;;;;;0.60;0.50;;;10.50;1.40;;;11.57;100.00;95859.30;645702;216;31537;-72
2021/09/23 07:32:39;;;;;;;1.10;0.80;;;10.80;1.40;;;11.71;100.00;95858.05;646690;216;31549;-71
2021/09/23 07:35:54;;;;;;;1.35;0.90;;;10.90;1.40;;;11.90;100.00;95859.16;646343;216;31523;-71
2021/09/23 07:38:36;;;;;;;0.80;0.80;;;11.10;1.40;;;12.14;100.00;95855.16;619087;226;43079;-71
2021/09/23 07:41:17;;;;;;;0.88;0.70;;;11.30;1.40;;;12.40;100.00;95851.03;640346;215;33118;-70
2021/09/23 07:43:59;;;;;;;0.90;0.70;;;11.40;1.40;;;12.55;100.00;95845.02;646813;212;32028;-71
2021/09/23 07:46:41;;;;;;;1.42;1.33;;;11.50;1.40;;;12.78;100.00;95844.11;645584;212;31667;-71
2021/09/23 07:49:22;;;;;;;1.40;0.90;;;11.60;1.40;;;12.96;100.00;95838.81;646649;216;31565;-71
2021/09/23 07:52:06;;;;;;;1.07;0.70;;;11.90;1.40;;;13.01;100.00;95841.58;646052;212;31542;-71
2021/09/23 07:54:47;;;;;;;1.00;0.65;;;12.00;1.40;;;13.15;100.00;95846.19;620175;226;31840;-72
2021/09/23 07:57:27;;;;;;;1.10;0.80;;;12.20;1.40;;;13.37;100.00;95838.17;646152;212;42336;-71
2021/09/23 08:00:10;;;;;;;0.60;0.57;;;12.30;1.40;;;13.52;100.00;95830.77;645854;216;31517;-72
2021/09/23 08:02:52;;;;;;;0.97;0.70;;;12.60;1.40;;;13.74;100.00;95833.52;645540;212;34990;-71
2021/09/23 08:05:33;;;;;;;1.20;1.08;;;12.70;1.40;;;13.99;97.81;95828.77;646720;212;42636;-72
2021/09/23 08:08:15;;;;;;;1.70;1.30;;;13.00;1.40;;;14.16;97.29;95829.43;618496;222;40113;-72
2021/09/23 08:10:57;;;;;;;1.20;1.00;;;13.10;1.40;;;14.48;97.22;95834.59;619567;222;32364;-70
2021/09/23 08:13:41;;;;;;;1.00;0.80;;;13.40;1.40;;;14.83;95.54;95831.72;645237;216;40120;-72
2021/09/23 08:16:23;;;;;;;0.70;0.50;;;13.70;1.40;;;15.00;91.94;95824.44;645979;216;31714;-72
2021/09/23 08:19:05;;;;;;;1.65;0.82;;;14.00;1.40;;;15.23;89.33;95827.30;619257;222;31816;-73
2021/09/23 08:21:56;;;;;;;1.00;0.70;;;14.20;1.40;;;15.24;85.60;95831.86;620162;226;43142;-73
2021/09/23 08:24:37;;;;;;;2.08;0.93;;;14.30;1.40;;;15.44;89.72;95837.12;618883;226;32183;-74
2021/09/23 08:27:21;;;;;;;1.80;1.20;;;14.20;1.40;;;15.63;87.42;95846.21;630173;221;31760;-71
2021/09/23 08:30:03;;;;;;;1.37;0.80;;;14.40;1.40;;;15.92;87.59;95849.96;646953;212;31536;-72
2021/09/23 08:32:44;;;;;;;0.80;0.60;;;14.80;1.40;;;16.22;87.90;95847.95;618779;226;32421;-71
2021/09/23 08:35:53;;;;;;;2.20;1.10;;;15.00;1.40;;;16.22;85.08;95846.22;646384;212;32122;-71
2021/09/23 08:38:35;;;;;;;1.60;1.10;;;15.20;1.40;;;16.26;82.45;95841.90;646141;216;31631;-72
2021/09/23 08:41:17;;;;;;;1.67;1.02;;;15.40;1.40;;;16.73;80.48;95840.93;642459;213;32070;-72
2021/09/23 08:44:02;;;;;;;1.50;1.10;;;15.70;1.40;;;17.05;80.69;95840.06;646114;212;31638;-71
2021/09/23 08:46:43;;;;;;;1.90;1.17;;;16.00;1.40;;;17.46;81.17;95841.35;620263;226;31920;-72
2021/09/23 08:49:31;;;;;;;1.20;0.68;;;16.60;1.40;;;18.18;79.93;95843.04;648447;216;32221;-73
2021/09/23 08:52:18;;;;;;;1.33;0.80;;;17.10;1.40;;;19.22;69.04;95846.61;646018;212;31525;-72
2021/09/23 08:55:02;;;;;;;1.58;1.00;;;19.30;1.40;;;21.16;60.13;95840.02;619214;226;31863;-71
2021/09/23 08:57:45;;;;;;;2.00;0.90;;;23.50;1.40;;;23.79;57.19;95840.30;646818;212;31566;-71
2021/09/23 09:00:34;;;;;;;1.20;1.10;;;25.90;1.40;;;25.73;49.90;95835.78;646090;212;31542;-73
2021/09/23 09:03:21;;;;;;;1.27;0.98;;;26.40;1.40;;;25.48;46.63;95837.92;619858;226;32730;-71
2021/09/23 09:06:05;;;;;;;1.60;1.08;;;25.00;1.40;;;25.79;49.20;95835.04;645748;212;31539;-72
2021/09/23 09:08:47;;;;;;;2.77;1.40;;;25.10;1.40;;;28.68;49.86;95835.13;645859;212;31666;-73
2021/09/23 09:11:30;;;;;;;3.55;1.10;;;27.20;1.40;;;30.03;43.46;95824.94;645676;216;31837;-72
2021/09/23 09:14:30;;;;;;;1.67;1.05;;;27.50;1.40;;;29.84;39.22;95827.08;646615;216;31521;-72
2021/09/23 09:17:12;;;;;;;1.50;1.20;;;27.70;1.40;;;29.45;36.00;95827.36;646849;212;31665;-73
2021/09/23 09:19:59;;;;;;;1.62;1.20;;;26.50;1.40;;;28.84;46.10;95823.16;645102;212;31779;-73
2021/09/23 09:22:44;;;;;;;1.50;1.20;;;25.40;1.40;;;32.18;42.66;95811.33;647257;212;31613;-72
2021/09/23 09:25:25;;;;;;;1.77;1.00;;;27.40;1.40;;;31.36;36.59;95807.11;646479;212;31592;-72
2021/09/23 09:28:07;;;;;;;1.30;1.20;;;27.30;1.40;;;30.38;42.60;95802.92;646298;212;31986;-72
2021/09/23 09:30:56;;;;;;;1.55;1.15;;;27.50;1.40;;;33.45;37.31;95801.08;645678;212;31515;-72
2021/09/23 09:35:54;;;;;;;1.37;1.00;;;27.30;1.40;;;31.30;37.67;95804.96;645130;216;32004;-72
2021/09/23 09:38:35;;;;;;;1.20;1.00;;;26.40;1.40;;;33.48;37.49;95807.19;646721;216;31645;-72
2021/09/23 09:41:23;;;;;;;1.50;1.30;;;28.90;1.40;;;33.97;30.43;95808.69;647362;212;31817;-73
2021/09/23 09:44:08;;;;;;;1.27;1.00;;;29.90;1.40;;;32.81;31.06;95804.98;646725;216;31514;-72
2021/09/23 09:46:51;;;;;;;1.40;1.10;;;28.70;1.40;;;34.60;35.40;95796.83;646685;212;31609;-72
2021/09/23 09:49:31;;;;;;;1.27;1.10;;;30.00;1.40;;;36.59;31.59;95790.66;648377;216;38891;-72
2021/09/23 09:52:13;;;;;;;1.40;1.10;;;30.50;1.40;;;36.10;28.45;95795.25;646307;216;31862;-73
2021/09/23 09:55:01;;;;;;;1.50;1.40;;;29.40;1.40;;;30.05;33.30;95800.41;619019;222;31975;-73
2021/09/23 09:57:44;;;;;;;1.50;1.10;;;26.60;1.40;;;30.93;34.77;95793.66;646419;216;31611;-73
2021/09/23 10:00:28;;;;;;;1.20;1.10;;;26.70;1.40;;;30.08;33.63;95789.55;618604;222;32048;-73
2021/09/23 10:03:10;;;;;;;1.60;1.20;;;26.90;1.40;;;32.11;31.57;95783.46;646318;212;32042;-72
2021/09/23 10:05:52;;;;;;;0.82;0.70;;;27.70;1.40;;;32.54;31.35;95781.69;646370;216;32183;-73
2021/09/23 10:08:34;;;;;;;1.42;1.23;;;27.90;1.40;;;30.42;32.54;95784.89;618485;225;42611;-72
2021/09/23 10:11:15;;;;;;;1.58;1.48;;;27.20;1.40;;;29.69;35.06;95785.33;645675;216;31651;-72
2021/09/23 10:13:57;;;;;;;1.50;1.40;;;25.90;1.40;;;28.32;35.02;95790.00;646260;212;31919;-72
2021/09/23 10:16:39;;;;;;;3.00;1.12;;;25.20;1.40;;;31.40;32.94;95778.10;645832;212;31665;-73
2021/09/23 10:19:21;;;;;;;1.08;0.88;;;27.70;1.40;;;29.96;34.58;95781.00;632297;222;31708;-72
2021/09/23 10:22:02;;;;;;;1.00;0.90;;;27.20;1.40;;;29.35;35.26;95775.09;619229;226;31982;-72
2021/09/23 10:24:44;;;;;;;1.08;0.90;;;26.40;1.40;;;30.66;33.25;95770.44;647246;212;31519;-72
2021/09/23 10:30:14;;;;;;;1.30;1.20;;;26.30;1.40;;;29.70;35.26;95770.13;646283;212;42310;-72
2021/09/23 10:32:56;;;;;;;2.00;0.80;;;26.00;1.40;;;32.63;31.32;95768.99;645627;216;31587;-73
2021/09/23 10:35:51;;;;;;;1.90;1.30;;;28.80;1.40;;;32.85;29.89;95770.39;646335;216;31552;-72
2021/09/23 10:38:32;;;;;;;1.08;0.80;;;29.10;1.40;;;33.11;31.42;95767.14;645809;216;31531;-72
2021/09/23 10:43:50;;;;;;;2.10;1.10;;;27.50;1.40;;;33.18;29.18;95764.38;645318;212;31619;-75
2021/09/23 10:46:34;;;;;;;0.82;0.80;;;28.00;1.40;;;31.13;31.22;95755.98;646875;216;42148;-72
2021/09/23 10:49:19;;;;;;;1.80;1.00;;;27.10;1.40;;;29.71;32.84;95755.92;646633;215;31496;-73
2021/09/23 10:52:00;;;;;;;1.10;0.90;;;26.00;1.40;;;33.10;29.50;95749.54;646060;212;31536;-72
2021/09/23 10:54:42;;;;;;;1.00;0.90;;;28.80;1.40;;;35.61;27.41;95739.94;648140;216;32020;-72
2021/09/23 10:57:23;;;;;;;1.15;0.82;;;30.60;1.40;;;31.42;30.37;95751.41;647570;216;43756;-72
2021/09/23 11:00:06;;;;;;;1.30;1.10;;;28.20;1.40;;;31.55;31.57;95746.52;645701;212;31821;-73
2021/09/23 11:02:47;;;;;;;1.20;0.90;;;27.30;1.40;;;30.26;32.10;95751.14;646492;212;31769;-72
2021/09/23 11:05:29;;;;;;;0.70;0.60;;;27.10;1.40;;;29.05;33.38;95748.72;647190;216;31521;-73
2021/09/23 11:10:45;;;;;;;1.05;0.90;;;27.10;1.40;;;30.95;30.67;95734.47;646654;212;31985;-72
2021/09/23 11:13:27;;;;;;;1.10;1.00;;;27.80;1.40;;;31.25;30.65;95734.76;646313;216;32039;-72
2021/09/23 11:16:08;;;;;;;0.90;0.70;;;27.60;1.40;;;32.03;30.00;95735.45;646803;212;32395;-72
2021/09/23 11:18:50;;;;;;;1.50;0.70;;;27.40;1.40;;;29.37;32.19;95731.73;644791;216;32511;-72
2021/09/23 11:21:32;;;;;;;0.90;0.73;;;26.10;1.40;;;32.17;30.78;95726.17;646785;212;32188;-73
2021/09/23 11:24:13;;;;;;;1.00;0.90;;;27.80;1.40;;;31.17;30.58;95727.20;646242;212;32106;-73
2021/09/23 11:26:55;;;;;;;1.02;0.77;;;27.50;1.40;;;33.91;28.21;95713.67;619965;226;32148;-73
2021/09/23 11:29:37;;;;;;;1.60;1.00;;;29.70;1.40;;;34.64;27.70;95715.61;646384;216;31664;-72
2021/09/23 11:32:20;;;;;;;2.05;1.10;;;29.70;1.40;;;32.60;30.23;95720.44;645448;216;31560;-73
2021/09/23 11:35:50;;;;;;;1.00;0.90;;;28.60;1.40;;;34.26;29.41;95711.50;647408;216;31531;-72
2021/09/23 11:38:35;;;;;;;1.40;1.10;;;29.90;1.40;;;32.88;31.06;95718.13;646692;212;42275;-72
2021/09/23 11:41:17;;;;;;;1.30;1.00;;;29.10;1.40;;;32.53;33.52;95724.71;641327;212;31731;-71
2021/09/23 11:43:58;;;;;;;1.70;1.20;;;27.70;1.40;;;31.59;34.09;95719.23;646294;212;31592;-73
2021/09/23 11:46:40;;;;;;;1.17;1.08;;;28.40;1.40;;;32.28;31.81;95719.83;647185;216;31662;-72
2021/09/23 11:49:22;;;;;;;1.20;1.00;;;29.00;1.40;;;34.77;28.88;95716.06;619050;222;31900;-72
2021/09/23 11:52:12;;;;;;;1.50;1.20;;;29.70;1.40;;;36.04;28.39;95713.45;648053;212;31558;-74
2021/09/23 11:55:00;;;;;;;1.20;1.10;;;29.70;1.40;;;36.69;27.14;95713.63;645544;212;31522;-73
2021/09/23 11:57:42;;;;;;;1.40;1.30;;;30.00;1.40;;;38.06;25.89;95716.92;647812;216;31627;-73